Time;durP1;ratioP1;P1;durP2;ratioP2;P2;SDS_P1;SDS_P2;PMS_P1;PMS_P2;Temp;Humidity;BMP_temperature;BMP_pressure;BME280_temperature;BME280_humidity;BME280_pressure;Samples;Min_cycle;Max_cycle;Signal;HPM_P1;HPM_P2
2021/08/22 00:01:19;;;;;;;2.90;1.83;;;;;;;;;;5070847;28;20487;-71
2021/08/22 00:03:47;;;;;;;2.57;1.80;;;;;;;;;;5071994;28;20540;-71
2021/08/22 00:06:15;;;;;;;3.00;1.97;;;;;;;;;;5073870;28;20570;-71
2021/08/22 00:08:43;;;;;;;3.50;1.50;;;;;;;;;;5073751;28;20448;-71
2021/08/22 00:11:12;;;;;;;3.47;2.37;;;;;;;;;;5056513;28;20569;-71
2021/08/22 00:13:40;;;;;;;3.07;1.40;;;;;;;;;;5071438;28;20502;-70
2021/08/22 00:16:07;;;;;;;2.77;1.60;;;;;;;;;;5072806;28;20543;-69
2021/08/22 00:18:37;;;;;;;3.17;1.67;;;;;;;;;;5072167;28;20929;-71
2021/08/22 00:21:05;;;;;;;2.60;1.80;;;;;;;;;;5074316;28;20514;-71
2021/08/22 00:23:33;;;;;;;2.83;1.90;;;;;;;;;;5071576;28;20521;-72
2021/08/22 00:26:00;;;;;;;2.90;1.90;;;;;;;;;;5074439;28;20540;-71
2021/08/22 00:28:28;;;;;;;5.43;1.93;;;;;;;;;;5073711;28;20526;-71
2021/08/22 00:30:56;;;;;;;2.60;1.80;;;;;;;;;;5074266;28;20525;-71
2021/08/22 00:33:24;;;;;;;2.07;1.47;;;;;;;;;;5073798;28;20488;-71
2021/08/22 00:35:54;;;;;;;3.57;1.70;;;;;;;;;;5073161;28;21042;-71
2021/08/22 00:38:22;;;;;;;2.90;1.43;;;;;;;;;;5074242;28;20472;-71
2021/08/22 00:40:50;;;;;;;2.30;1.60;;;;;;;;;;5073623;28;20527;-71
2021/08/22 00:43:18;;;;;;;2.70;1.30;;;;;;;;;;5074409;28;20471;-71
2021/08/22 00:45:46;;;;;;;2.90;2.30;;;;;;;;;;5073882;28;20456;-71
2021/08/22 00:48:14;;;;;;;2.43;1.60;;;;;;;;;;5073656;28;20891;-71
2021/08/22 00:50:42;;;;;;;2.57;1.40;;;;;;;;;;5071212;28;20464;-71
2021/08/22 00:53:11;;;;;;;2.47;2.00;;;;;;;;;;5071811;28;20464;-71
2021/08/22 00:55:39;;;;;;;2.23;1.37;;;;;;;;;;5072094;28;20457;-70
2021/08/22 00:58:07;;;;;;;2.97;1.60;;;;;;;;;;5069920;28;20526;-71
2021/08/22 01:00:36;;;;;;;2.13;1.60;;;;;;;;;;5069903;28;21007;-71
2021/08/22 01:03:09;;;;;;;2.40;1.87;;;;;;;;;;5071792;28;20469;-71
2021/08/22 01:05:41;;;;;;;2.50;1.80;;;;;;;;;;5074167;28;20564;-70
2021/08/22 01:08:17;;;;;;;2.77;1.53;;;;;;;;;;5075171;28;20460;-70
2021/08/22 01:10:46;;;;;;;2.50;1.43;;;;;;;;;;5077378;28;20922;-71
2021/08/22 01:13:17;;;;;;;3.30;1.90;;;;;;;;;;5077705;28;20464;-70
2021/08/22 01:15:46;;;;;;;2.27;1.70;;;;;;;;;;5078071;28;20547;-70
2021/08/22 01:18:16;;;;;;;2.77;1.43;;;;;;;;;;5077967;28;20543;-71
2021/08/22 01:20:45;;;;;;;8.90;2.10;;;;;;;;;;5073021;28;20553;-71
2021/08/22 01:23:14;;;;;;;2.27;1.47;;;;;;;;;;5044955;28;20468;-70
2021/08/22 01:25:43;;;;;;;2.13;1.50;;;;;;;;;;5078254;28;20735;-71
2021/08/22 01:28:13;;;;;;;3.37;1.87;;;;;;;;;;5077278;28;20444;-71
2021/08/22 01:30:47;;;;;;;3.03;1.50;;;;;;;;;;5075226;28;20460;-71
2021/08/22 01:33:19;;;;;;;2.77;1.60;;;;;;;;;;5075288;28;20459;-70
2021/08/22 01:35:49;;;;;;;2.40;1.80;;;;;;;;;;5074711;28;20496;-71
2021/08/22 01:38:18;;;;;;;2.70;1.97;;;;;;;;;;5075443;28;20453;-71
2021/08/22 01:40:47;;;;;;;2.30;1.50;;;;;;;;;;5073772;28;20480;-71
2021/08/22 01:43:15;;;;;;;2.90;1.83;;;;;;;;;;5072316;28;20453;-71
2021/08/22 01:45:44;;;;;;;2.40;1.50;;;;;;;;;;5074934;28;20834;-71
2021/08/22 01:48:14;;;;;;;2.80;1.63;;;;;;;;;;5074999;28;20938;-71
2021/08/22 01:50:43;;;;;;;3.30;2.10;;;;;;;;;;5079646;28;20922;-71
2021/08/22 01:53:13;;;;;;;4.53;2.20;;;;;;;;;;5077445;28;20487;-70
2021/08/22 01:55:41;;;;;;;1.77;1.33;;;;;;;;;;5075175;28;20464;-71
2021/08/22 01:58:10;;;;;;;3.30;1.70;;;;;;;;;;5077024;28;20868;-70
2021/08/22 02:00:38;;;;;;;3.20;1.97;;;;;;;;;;5076473;28;20575;-70
2021/08/22 02:03:10;;;;;;;2.53;1.63;;;;;;;;;;5077252;28;20497;-71
2021/08/22 02:05:41;;;;;;;2.97;1.50;;;;;;;;;;5075728;28;20468;-72
2021/08/22 02:08:12;;;;;;;4.67;2.00;;;;;;;;;;5074272;28;21188;-70
2021/08/22 02:10:44;;;;;;;2.67;1.70;;;;;;;;;;5075149;28;20462;-71
2021/08/22 02:13:12;;;;;;;3.40;2.00;;;;;;;;;;5076079;28;20476;-71
2021/08/22 02:15:42;;;;;;;4.50;2.03;;;;;;;;;;5076766;28;20526;-70
2021/08/22 02:18:12;;;;;;;5.23;2.03;;;;;;;;;;5076595;28;20861;-71
2021/08/22 02:20:40;;;;;;;4.20;2.20;;;;;;;;;;5074134;28;20480;-71
2021/08/22 02:23:08;;;;;;;3.40;2.13;;;;;;;;;;5074173;28;20457;-71
2021/08/22 02:25:40;;;;;;;4.60;2.27;;;;;;;;;;5073902;28;20444;-71
2021/08/22 02:28:08;;;;;;;4.73;2.60;;;;;;;;;;5072375;28;20469;-71
2021/08/22 02:30:36;;;;;;;2.77;1.60;;;;;;;;;;5073239;28;20466;-70
2021/08/22 02:33:04;;;;;;;3.00;1.90;;;;;;;;;;5073938;28;20554;-70
2021/08/22 02:35:32;;;;;;;2.37;1.70;;;;;;;;;;5074242;28;20935;-70
2021/08/22 02:38:00;;;;;;;2.80;2.27;;;;;;;;;;5054865;28;20564;-71
2021/08/22 02:40:27;;;;;;;1.90;1.30;;;;;;;;;;5060932;28;20453;-71
2021/08/22 02:42:57;;;;;;;2.40;1.73;;;;;;;;;;5074179;28;20472;-70
2021/08/22 02:45:25;;;;;;;2.60;1.50;;;;;;;;;;5074220;28;20979;-70
2021/08/22 02:47:56;;;;;;;3.30;1.87;;;;;;;;;;5075880;28;20471;-70
2021/08/22 02:50:25;;;;;;;3.00;1.60;;;;;;;;;;5076576;28;20471;-70
2021/08/22 02:52:53;;;;;;;2.30;1.43;;;;;;;;;;5074257;28;20564;-71
2021/08/22 02:55:21;;;;;;;2.43;1.37;;;;;;;;;;5072826;28;20532;-71
2021/08/22 02:57:49;;;;;;;3.17;1.83;;;;;;;;;;5073991;28;20532;-71
2021/08/22 03:00:19;;;;;;;3.33;2.20;;;;;;;;;;5075946;28;20453;-71
2021/08/22 03:02:47;;;;;;;2.63;1.90;;;;;;;;;;5075588;28;20873;-71
2021/08/22 03:05:15;;;;;;;2.13;1.73;;;;;;;;;;5073680;28;20522;-70
2021/08/22 03:07:42;;;;;;;4.23;2.50;;;;;;;;;;5074012;28;20468;-71
2021/08/22 03:10:10;;;;;;;2.23;1.60;;;;;;;;;;5074087;28;20525;-70
2021/08/22 03:12:38;;;;;;;2.07;1.40;;;;;;;;;;5073864;28;20465;-71
2021/08/22 03:15:07;;;;;;;3.60;1.70;;;;;;;;;;5075224;28;20453;-71
2021/08/22 03:17:36;;;;;;;3.40;1.40;;;;;;;;;;5071905;28;20472;-71
2021/08/22 03:20:07;;;;;;;2.93;2.20;;;;;;;;;;5071676;28;20869;-71
2021/08/22 03:22:35;;;;;;;4.30;1.97;;;;;;;;;;5073671;28;20496;-71
2021/08/22 03:25:03;;;;;;;3.10;1.63;;;;;;;;;;5073391;28;20568;-70
2021/08/22 03:27:30;;;;;;;2.77;2.07;;;;;;;;;;5073529;28;20922;-70
2021/08/22 03:29:58;;;;;;;2.20;1.60;;;;;;;;;;5072273;28;20471;-71
2021/08/22 03:32:26;;;;;;;2.40;1.63;;;;;;;;;;5073454;28;20468;-70
2021/08/22 03:34:57;;;;;;;2.80;1.67;;;;;;;;;;5073109;28;20461;-71
2021/08/22 03:37:25;;;;;;;2.43;1.93;;;;;;;;;;5073344;28;20456;-70
2021/08/22 03:39:53;;;;;;;2.50;1.80;;;;;;;;;;5072884;28;20495;-70
2021/08/22 03:42:20;;;;;;;2.50;2.00;;;;;;;;;;5072631;28;20491;-71
2021/08/22 03:44:48;;;;;;;1.90;1.50;;;;;;;;;;5071494;28;20448;-70
2021/08/22 03:47:16;;;;;;;3.67;2.37;;;;;;;;;;5072576;28;20528;-71
2021/08/22 03:49:45;;;;;;;2.07;1.47;;;;;;;;;;5073005;28;20480;-70
2021/08/22 03:52:14;;;;;;;2.30;1.40;;;;;;;;;;5072984;28;20543;-70
2021/08/22 03:54:41;;;;;;;2.80;1.90;;;;;;;;;;5072483;28;20909;-71
2021/08/22 03:57:09;;;;;;;3.00;1.70;;;;;;;;;;5072273;28;20551;-70
2021/08/22 03:59:37;;;;;;;4.00;2.03;;;;;;;;;;5072349;28;20468;-70
2021/08/22 04:02:05;;;;;;;2.80;2.47;;;;;;;;;;5074409;28;20488;-70
2021/08/22 04:04:33;;;;;;;3.20;2.20;;;;;;;;;;5074549;28;20492;-71
2021/08/22 04:07:01;;;;;;;5.57;2.67;;;;;;;;;;5074185;28;20892;-70
2021/08/22 04:09:30;;;;;;;4.60;1.60;;;;;;;;;;5073680;28;20529;-70
2021/08/22 04:11:59;;;;;;;3.67;1.87;;;;;;;;;;5057881;28;20503;-70
2021/08/22 04:14:28;;;;;;;2.90;2.03;;;;;;;;;;5063821;28;20457;-70
2021/08/22 04:16:56;;;;;;;2.60;1.97;;;;;;;;;;5075265;28;20466;-71
2021/08/22 04:19:24;;;;;;;3.83;1.83;;;;;;;;;;5074350;28;20533;-70
2021/08/22 04:21:55;;;;;;;4.23;2.13;;;;;;;;;;5075168;28;20480;-70
2021/08/22 04:24:33;;;;;;;2.77;1.90;;;;;;;;;;5072366;28;20464;-70
2021/08/22 04:27:02;;;;;;;3.93;1.53;;;;;;;;;;5072467;28;20880;-70
2021/08/22 04:29:31;;;;;;;3.10;1.70;;;;;;;;;;5072469;28;20752;-70
2021/08/22 04:31:59;;;;;;;4.30;2.07;;;;;;;;;;5074627;28;20525;-70
2021/08/22 04:34:29;;;;;;;5.83;1.97;;;;;;;;;;5073676;28;20461;-71
2021/08/22 04:36:57;;;;;;;2.20;1.70;;;;;;;;;;5071310;28;20741;-70
2021/08/22 04:39:25;;;;;;;2.20;1.80;;;;;;;;;;5072064;28;20507;-70
2021/08/22 04:41:53;;;;;;;2.67;2.20;;;;;;;;;;5073013;28;20575;-70
2021/08/22 04:44:22;;;;;;;2.37;2.10;;;;;;;;;;5072700;28;20514;-70
2021/08/22 04:46:51;;;;;;;2.27;1.60;;;;;;;;;;5074009;28;20453;-71
2021/08/22 04:49:19;;;;;;;6.83;2.57;;;;;;;;;;5074837;28;20465;-70
2021/08/22 04:51:46;;;;;;;3.60;1.63;;;;;;;;;;5052314;28;20522;-70
2021/08/22 04:54:14;;;;;;;3.70;2.20;;;;;;;;;;5066434;28;20582;-70
2021/08/22 04:56:45;;;;;;;2.20;1.50;;;;;;;;;;5072482;28;20492;-70
2021/08/22 04:59:12;;;;;;;3.67;1.93;;;;;;;;;;5073318;28;20463;-71
2021/08/22 05:01:42;;;;;;;6.07;2.57;;;;;;;;;;5071605;28;20775;-70
2021/08/22 05:04:09;;;;;;;4.60;2.17;;;;;;;;;;5074158;28;20479;-70
2021/08/22 05:06:37;;;;;;;2.33;1.47;;;;;;;;;;5073587;28;20491;-71
2021/08/22 05:09:05;;;;;;;4.60;2.27;;;;;;;;;;5074149;28;20732;-71
2021/08/22 05:11:36;;;;;;;2.70;1.93;;;;;;;;;;5071554;28;20457;-70
2021/08/22 05:14:04;;;;;;;3.10;2.10;;;;;;;;;;5071866;28;20519;-70
2021/08/22 05:16:31;;;;;;;2.17;1.57;;;;;;;;;;5073022;28;20456;-70
2021/08/22 05:19:01;;;;;;;3.90;2.10;;;;;;;;;;5072193;28;20470;-70
2021/08/22 05:21:29;;;;;;;3.63;2.53;;;;;;;;;;5068665;28;20512;-70
2021/08/22 05:23:56;;;;;;;3.23;1.90;;;;;;;;;;5071438;28;20557;-71
2021/08/22 05:26:25;;;;;;;3.37;1.83;;;;;;;;;;5071645;28;20454;-70
2021/08/22 05:28:53;;;;;;;3.27;1.90;;;;;;;;;;5073261;28;20479;-71
2021/08/22 05:31:21;;;;;;;4.10;2.10;;;;;;;;;;5071760;28;20534;-71
2021/08/22 05:33:49;;;;;;;3.07;1.90;;;;;;;;;;5071369;28;20545;-71
2021/08/22 05:36:19;;;;;;;4.07;1.50;;;;;;;;;;5073677;28;20461;-71
2021/08/22 05:38:48;;;;;;;3.60;1.80;;;;;;;;;;5072058;28;20456;-70
2021/08/22 05:41:19;;;;;;;3.47;2.50;;;;;;;;;;5071044;28;20460;-71
2021/08/22 05:43:47;;;;;;;6.10;1.90;;;;;;;;;;5071659;28;20453;-70
2021/08/22 05:46:15;;;;;;;3.13;1.50;;;;;;;;;;5067327;28;20882;-70
2021/08/22 05:48:43;;;;;;;5.70;2.00;;;;;;;;;;5071282;28;20446;-70
2021/08/22 05:51:15;;;;;;;2.20;1.63;;;;;;;;;;5072981;28;20490;-70
2021/08/22 05:53:44;;;;;;;3.53;2.00;;;;;;;;;;5074348;28;20456;-70
2021/08/22 05:56:12;;;;;;;3.17;2.40;;;;;;;;;;5076469;28;20459;-70
2021/08/22 05:58:40;;;;;;;8.80;2.10;;;;;;;;;;5076676;28;20785;-71
2021/08/22 06:01:08;;;;;;;8.53;2.60;;;;;;;;;;5077125;28;20460;-71
2021/08/22 06:03:36;;;;;;;5.20;2.30;;;;;;;;;;5079259;28;20484;-71
2021/08/22 06:06:07;;;;;;;3.80;1.80;;;;;;;;;;5076553;28;20492;-70
2021/08/22 06:08:35;;;;;;;3.23;1.80;;;;;;;;;;5076864;28;20452;-71
2021/08/22 06:11:05;;;;;;;2.60;1.60;;;;;;;;;;5076332;28;20531;-70
2021/08/22 06:13:33;;;;;;;3.03;2.00;;;;;;;;;;5060811;28;20725;-70
2021/08/22 06:16:01;;;;;;;3.97;2.03;;;;;;;;;;5077260;28;20864;-70
2021/08/22 06:18:28;;;;;;;2.73;1.77;;;;;;;;;;5074032;28;20539;-70
2021/08/22 06:20:58;;;;;;;4.20;2.37;;;;;;;;;;5074606;28;20988;-70
2021/08/22 06:23:26;;;;;;;4.43;1.83;;;;;;;;;;5074631;28;20772;-70
2021/08/22 06:25:54;;;;;;;2.50;1.63;;;;;;;;;;5074262;28;20499;-70
2021/08/22 06:28:23;;;;;;;3.13;2.30;;;;;;;;;;5074231;28;20465;-70
2021/08/22 06:30:51;;;;;;;3.93;1.90;;;;;;;;;;5074427;28;20464;-70
2021/08/22 06:33:19;;;;;;;2.77;1.80;;;;;;;;;;5074314;28;20468;-70
2021/08/22 06:35:46;;;;;;;4.43;2.60;;;;;;;;;;5057492;28;20464;-71
2021/08/22 06:38:14;;;;;;;3.23;2.00;;;;;;;;;;5078685;28;20452;-70
2021/08/22 06:40:42;;;;;;;3.00;1.80;;;;;;;;;;5079267;28;20958;-70
2021/08/22 06:43:10;;;;;;;10.33;2.27;;;;;;;;;;5078241;28;21010;-70
2021/08/22 06:45:39;;;;;;;2.60;1.90;;;;;;;;;;5079601;28;20460;-70
2021/08/22 06:48:07;;;;;;;3.10;1.60;;;;;;;;;;5079243;28;20518;-70
2021/08/22 06:50:35;;;;;;;3.80;2.27;;;;;;;;;;5079882;28;20867;-70
2021/08/22 06:53:03;;;;;;;6.10;2.30;;;;;;;;;;5078333;28;20456;-71
2021/08/22 06:55:34;;;;;;;3.00;2.20;;;;;;;;;;5076873;28;20731;-71
2021/08/22 06:58:01;;;;;;;4.50;2.00;;;;;;;;;;5075782;28;20445;-70
2021/08/22 07:00:29;;;;;;;4.93;1.80;;;;;;;;;;5074398;28;20463;-70
2021/08/22 07:02:58;;;;;;;2.90;1.53;;;;;;;;;;5071724;28;20489;-70
2021/08/22 07:05:26;;;;;;;3.30;1.97;;;;;;;;;;5076598;28;20461;-70
2021/08/22 07:07:54;;;;;;;2.60;1.97;;;;;;;;;;5073414;28;20489;-71
2021/08/22 07:10:22;;;;;;;2.90;2.10;;;;;;;;;;5072974;28;20503;-71
2021/08/22 07:12:50;;;;;;;4.00;2.30;;;;;;;;;;5073667;28;20468;-71
2021/08/22 07:15:18;;;;;;;3.67;2.77;;;;;;;;;;5072929;28;20476;-70
2021/08/22 07:17:46;;;;;;;2.77;2.13;;;;;;;;;;5073556;28;20464;-70
2021/08/22 07:20:15;;;;;;;4.13;1.77;;;;;;;;;;5075382;28;20518;-70
2021/08/22 07:22:43;;;;;;;4.53;2.13;;;;;;;;;;5074949;28;20939;-70
2021/08/22 07:25:11;;;;;;;3.70;2.73;;;;;;;;;;5072152;28;20463;-71
2021/08/22 07:27:39;;;;;;;5.47;2.20;;;;;;;;;;5070972;28;20449;-70
2021/08/22 07:30:07;;;;;;;4.20;2.27;;;;;;;;;;5072594;28;20470;-70
2021/08/22 07:32:35;;;;;;;4.67;2.17;;;;;;;;;;5072229;28;20565;-70
2021/08/22 07:35:03;;;;;;;2.07;1.47;;;;;;;;;;5073144;28;20556;-70
2021/08/22 07:37:32;;;;;;;3.70;2.13;;;;;;;;;;5072732;28;20844;-70
2021/08/22 07:40:00;;;;;;;2.57;2.20;;;;;;;;;;5072492;28;20963;-70
2021/08/22 07:42:28;;;;;;;3.20;2.27;;;;;;;;;;5073336;28;20579;-70
2021/08/22 07:44:56;;;;;;;3.07;2.07;;;;;;;;;;5072207;28;20464;-70
2021/08/22 07:47:23;;;;;;;3.33;2.63;;;;;;;;;;5071588;28;20468;-70
2021/08/22 07:49:51;;;;;;;3.50;2.27;;;;;;;;;;5071608;28;20725;-70
2021/08/22 07:52:24;;;;;;;4.70;1.87;;;;;;;;;;5072144;28;20449;-70
2021/08/22 07:54:53;;;;;;;2.40;1.83;;;;;;;;;;5040464;28;20476;-70
2021/08/22 07:57:21;;;;;;;2.93;2.00;;;;;;;;;;5070965;28;20460;-70
2021/08/22 07:59:49;;;;;;;4.23;2.60;;;;;;;;;;5071151;28;20465;-70
2021/08/22 08:02:17;;;;;;;5.13;2.93;;;;;;;;;;5071117;28;20476;-71
2021/08/22 08:04:46;;;;;;;2.93;2.10;;;;;;;;;;5071704;28;20476;-72
2021/08/22 08:07:14;;;;;;;3.53;2.50;;;;;;;;;;5072246;28;20453;-70
2021/08/22 08:09:45;;;;;;;3.40;1.87;;;;;;;;;;5071600;28;20495;-70
2021/08/22 08:12:14;;;;;;;2.63;1.90;;;;;;;;;;5072355;28;20798;-71
2021/08/22 08:14:43;;;;;;;3.10;2.33;;;;;;;;;;5070399;28;20469;-71
2021/08/22 08:17:11;;;;;;;3.67;2.23;;;;;;;;;;5056759;28;20797;-70
2021/08/22 08:19:38;;;;;;;3.73;2.57;;;;;;;;;;5071447;28;20470;-71
2021/08/22 08:22:09;;;;;;;2.07;1.57;;;;;;;;;;5072295;28;20753;-71
2021/08/22 08:24:37;;;;;;;4.50;2.50;;;;;;;;;;5071866;28;20530;-71
2021/08/22 08:27:05;;;;;;;3.57;2.10;;;;;;;;;;5072226;28;20457;-71
2021/08/22 08:29:36;;;;;;;3.27;2.10;;;;;;;;;;5071062;28;20460;-71
2021/08/22 08:32:04;;;;;;;2.97;2.23;;;;;;;;;;5071259;28;20460;-70
2021/08/22 08:34:32;;;;;;;3.40;2.30;;;;;;;;;;5069650;28;20496;-70
2021/08/22 08:37:00;;;;;;;4.07;2.30;;;;;;;;;;5071740;28;20472;-71
2021/08/22 08:39:30;;;;;;;3.30;1.53;;;;;;;;;;5070257;28;20448;-70
2021/08/22 08:42:15;;;;;;;3.67;1.90;;;;;;;;;;5070340;28;20478;-70
2021/08/22 08:44:45;;;;;;;3.10;1.80;;;;;;;;;;5071255;28;20449;-70
2021/08/22 08:47:13;;;;;;;3.53;1.90;;;;;;;;;;5073319;28;20483;-71
2021/08/22 08:49:43;;;;;;;2.60;1.87;;;;;;;;;;5074447;28;20497;-71
2021/08/22 08:52:13;;;;;;;4.40;2.50;;;;;;;;;;5074372;28;20502;-70
2021/08/22 08:54:41;;;;;;;3.03;2.20;;;;;;;;;;5074104;28;20784;-70
2021/08/22 08:57:09;;;;;;;2.77;2.10;;;;;;;;;;5073723;28;20457;-70
2021/08/22 08:59:36;;;;;;;4.90;2.70;;;;;;;;;;5074355;28;20452;-71
2021/08/22 09:02:06;;;;;;;6.50;3.10;;;;;;;;;;5073105;28;20547;-71
2021/08/22 09:04:35;;;;;;;4.10;1.90;;;;;;;;;;5055991;28;20477;-70
2021/08/22 09:07:24;;;;;;;4.00;2.20;;;;;;;;;;5070705;28;20467;-71
2021/08/22 09:10:14;;;;;;;3.30;2.13;;;;;;;;;;5037068;28;20456;-71
2021/08/22 09:12:56;;;;;;;7.10;2.60;;;;;;;;;;5066654;28;20911;-71
2021/08/22 09:15:47;;;;;;;3.50;2.33;;;;;;;;;;5070829;28;20467;-71
2021/08/22 09:18:33;;;;;;;3.80;2.57;;;;;;;;;;5070656;28;20468;-71
2021/08/22 09:21:37;;;;;;;3.47;2.23;;;;;;;;;;5070853;28;20475;-72
2021/08/22 09:24:19;;;;;;;3.20;2.30;;;;;;;;;;5051173;28;20885;-72
2021/08/22 09:27:02;;;;;;;4.10;2.63;;;;;;;;;;5064756;28;20874;-71
2021/08/22 09:29:59;;;;;;;3.70;3.10;;;;;;;;;;5080063;28;20890;-71
2021/08/22 09:32:48;;;;;;;8.97;2.70;;;;;;;;;;5044770;28;21119;-71
2021/08/22 09:35:35;;;;;;;3.83;2.53;;;;;;;;;;5055369;28;20445;-72
2021/08/22 09:38:20;;;;;;;4.33;3.00;;;;;;;;;;5066760;28;20802;-72
2021/08/22 09:44:11;;;;;;;4.73;2.97;;;;;;;;;;5171782;27;20466;-71
2021/08/22 09:46:57;;;;;;;4.77;2.90;;;;;;;;;;5156434;27;20453;-72
2021/08/22 09:49:54;;;;;;;4.77;3.00;;;;;;;;;;5155199;27;20516;-72
2021/08/22 09:52:39;;;;;;;4.23;2.57;;;;;;;;;;5155160;27;20498;-72
2021/08/22 09:55:26;;;;;;;3.90;2.47;;;;;;;;;;5153617;27;20702;-72
2021/08/22 09:58:23;;;;;;;3.73;3.17;;;;;;;;;;5154784;27;20453;-72
2021/08/22 10:01:21;;;;;;;7.90;4.20;;;;;;;;;;5154494;27;20434;-72
2021/08/22 10:04:10;;;;;;;4.40;2.57;;;;;;;;;;5153941;27;20480;-72
2021/08/22 10:07:02;;;;;;;3.47;2.57;;;;;;;;;;5154509;27;20441;-71
2021/08/22 10:09:32;;;;;;;3.40;2.83;;;;;;;;;;5154224;27;20862;-72
2021/08/22 10:12:01;;;;;;;5.47;3.43;;;;;;;;;;5153841;27;20453;-72
2021/08/22 10:14:33;;;;;;;3.03;2.43;;;;;;;;;;5154488;27;20472;-72
2021/08/22 10:17:04;;;;;;;4.40;3.07;;;;;;;;;;5154286;27;20467;-71
2021/08/22 10:19:34;;;;;;;7.67;3.83;;;;;;;;;;5154061;27;21025;-71
2021/08/22 10:22:11;;;;;;;5.43;3.50;;;;;;;;;;5153739;27;20563;-71
2021/08/22 10:24:49;;;;;;;4.27;3.10;;;;;;;;;;5145022;27;20878;-71
2021/08/22 10:27:38;;;;;;;5.43;3.80;;;;;;;;;;5141187;27;20455;-72
2021/08/22 10:30:11;;;;;;;116.73;64.50;;;;;;;;;;5147572;27;20452;-72
2021/08/22 10:32:53;;;;;;;5.80;4.07;;;;;;;;;;5153300;27;20437;-71
2021/08/22 10:35:27;;;;;;;3.83;3.03;;;;;;;;;;5153720;27;20464;-73
2021/08/22 10:37:56;;;;;;;4.07;3.50;;;;;;;;;;5152343;27;20449;-73
2021/08/22 10:40:38;;;;;;;4.27;3.63;;;;;;;;;;5153421;27;20464;-72
2021/08/22 10:43:24;;;;;;;4.83;3.63;;;;;;;;;;5153531;27;21152;-73
2021/08/22 10:45:56;;;;;;;4.03;3.47;;;;;;;;;;5153406;27;20488;-72
2021/08/22 10:48:38;;;;;;;5.50;2.87;;;;;;;;;;5152539;27;20448;-72
2021/08/22 10:51:12;;;;;;;22.80;13.93;;;;;;;;;;5152998;27;20455;-72
2021/08/22 10:53:40;;;;;;;4.80;3.50;;;;;;;;;;5147712;27;20559;-72
2021/08/22 10:56:23;;;;;;;4.10;3.60;;;;;;;;;;5137816;27;20774;-72
2021/08/22 10:59:10;;;;;;;6.87;4.37;;;;;;;;;;5122160;27;20481;-72
2021/08/22 11:01:44;;;;;;;5.90;4.60;;;;;;;;;;5135048;27;20514;-72
2021/08/22 11:04:16;;;;;;;4.07;3.00;;;;;;;;;;5139219;27;20515;-72
2021/08/22 11:06:56;;;;;;;6.40;3.97;;;;;;;;;;5138958;27;20733;-72
2021/08/22 11:09:43;;;;;;;4.53;3.50;;;;;;;;;;5138338;27;20502;-72
2021/08/22 11:12:37;;;;;;;9.10;5.83;;;;;;;;;;5139234;27;20442;-74
2021/08/22 11:15:06;;;;;;;6.47;4.80;;;;;;;;;;5139902;27;20454;-73
2021/08/22 11:17:49;;;;;;;10.17;4.50;;;;;;;;;;5140319;27;20469;-70
2021/08/22 11:20:19;;;;;;;7.60;4.40;;;;;;;;;;5139026;27;20882;-73
2021/08/22 11:22:50;;;;;;;5.60;3.63;;;;;;;;;;5139740;27;20580;-73
2021/08/22 11:25:38;;;;;;;6.80;3.60;;;;;;;;;;5140397;27;20457;-74
2021/08/22 11:28:13;;;;;;;6.40;4.00;;;;;;;;;;5140415;27;20524;-73
2021/08/22 11:30:44;;;;;;;5.33;4.23;;;;;;;;;;5139115;27;20461;-73
2021/08/22 11:33:17;;;;;;;5.43;3.60;;;;;;;;;;5139260;27;20854;-71
2021/08/22 11:35:46;;;;;;;5.50;3.57;;;;;;;;;;5139242;27;20462;-72
2021/08/22 11:38:19;;;;;;;4.93;3.53;;;;;;;;;;5137763;27;20870;-73
2021/08/22 11:41:02;;;;;;;5.13;3.00;;;;;;;;;;5139244;27;20465;-73
2021/08/22 11:43:31;;;;;;;4.70;3.53;;;;;;;;;;5139727;27;20482;-73
2021/08/22 11:46:03;;;;;;;3.80;3.40;;;;;;;;;;5137887;27;20484;-73
2021/08/22 11:48:36;;;;;;;4.20;3.37;;;;;;;;;;5139449;27;20510;-73
2021/08/22 11:51:04;;;;;;;5.47;4.17;;;;;;;;;;5138674;27;20478;-72
2021/08/22 11:53:33;;;;;;;6.50;3.80;;;;;;;;;;5138870;27;20442;-71
2021/08/22 11:56:05;;;;;;;7.97;5.30;;;;;;;;;;5139319;27;20445;-72
2021/08/22 11:58:35;;;;;;;19.00;14.13;;;;;;;;;;5138268;27;20461;-72
2021/08/22 12:01:18;;;;;;;9.10;4.27;;;;;;;;;;5138170;27;20932;-71
2021/08/22 12:03:59;;;;;;;8.00;4.13;;;;;;;;;;5138172;27;20550;-73
2021/08/22 12:06:35;;;;;;;5.80;3.37;;;;;;;;;;5137452;27;20465;-73
2021/08/22 12:09:03;;;;;;;5.00;4.50;;;;;;;;;;5138886;27;20856;-73
2021/08/22 12:11:33;;;;;;;5.87;4.47;;;;;;;;;;5137645;27;20453;-73
2021/08/22 12:14:15;;;;;;;8.40;4.50;;;;;;;;;;5138069;27;20497;-73
2021/08/22 12:17:05;;;;;;;6.20;4.53;;;;;;;;;;5138336;27;20457;-73
2021/08/22 12:19:41;;;;;;;8.03;4.10;;;;;;;;;;5137919;27;20564;-73
2021/08/22 12:22:33;;;;;;;6.33;4.87;;;;;;;;;;5117877;28;20450;-72
2021/08/22 12:25:02;;;;;;;6.20;4.60;;;;;;;;;;5136627;27;20486;-73
2021/08/22 12:27:34;;;;;;;5.93;4.50;;;;;;;;;;5139407;27;20450;-74
2021/08/22 12:30:10;;;;;;;7.87;4.60;;;;;;;;;;5138099;27;20446;-73
2021/08/22 12:32:42;;;;;;;5.67;3.60;;;;;;;;;;5138033;27;20545;-72
2021/08/22 12:35:15;;;;;;;6.80;4.40;;;;;;;;;;5122512;27;20446;-73
2021/08/22 12:37:43;;;;;;;8.00;4.93;;;;;;;;;;5137786;27;20553;-72
2021/08/22 12:40:43;;;;;;;5.83;4.77;;;;;;;;;;5138444;27;20868;-72
2021/08/22 12:43:29;;;;;;;9.70;4.83;;;;;;;;;;5136795;27;21186;-72
2021/08/22 12:45:57;;;;;;;8.90;5.47;;;;;;;;;;5138068;27;20459;-72
2021/08/22 12:48:25;;;;;;;8.20;5.03;;;;;;;;;;5138042;27;20438;-72
2021/08/22 12:50:58;;;;;;;5.53;4.20;;;;;;;;;;5136317;27;20464;-72
2021/08/22 12:53:29;;;;;;;7.20;5.00;;;;;;;;;;5137103;27;20449;-75
2021/08/22 12:55:57;;;;;;;7.30;4.80;;;;;;;;;;5137621;27;20541;-73
2021/08/22 12:58:26;;;;;;;5.07;4.33;;;;;;;;;;5137549;27;20432;-73
2021/08/22 13:03:55;;;;;;;7.17;5.70;;;;;;;;;;5059583;28;20480;-73
2021/08/22 13:06:27;;;;;;;4.93;4.23;;;;;;;;;;5107930;28;20498;-73
2021/08/22 13:08:55;;;;;;;5.40;3.47;;;;;;;;;;5117060;28;20778;-73
2021/08/22 13:11:23;;;;;;;4.67;3.80;;;;;;;;;;5118274;28;20447;-72
2021/08/22 13:13:55;;;;;;;4.60;3.70;;;;;;;;;;5116735;28;20480;-72
2021/08/22 13:16:23;;;;;;;4.30;3.20;;;;;;;;;;5116658;28;20459;-73
2021/08/22 13:19:07;;;;;;;5.27;4.37;;;;;;;;;;5116776;28;20812;-72
2021/08/22 13:21:39;;;;;;;4.17;3.27;;;;;;;;;;5127758;27;20553;-74
2021/08/22 13:24:07;;;;;;;5.07;3.90;;;;;;;;;;5137634;27;20956;-71
2021/08/22 13:26:39;;;;;;;4.13;3.60;;;;;;;;;;5137068;27;20540;-71
2021/08/22 13:29:10;;;;;;;5.87;4.50;;;;;;;;;;5137223;27;20729;-71
2021/08/22 13:31:38;;;;;;;4.20;3.57;;;;;;;;;;5136863;27;20449;-72
2021/08/22 13:34:10;;;;;;;7.63;3.93;;;;;;;;;;5136805;27;20526;-72
2021/08/22 13:36:39;;;;;;;3.43;3.10;;;;;;;;;;5136325;27;20460;-71
2021/08/22 13:39:07;;;;;;;4.27;3.53;;;;;;;;;;5136441;28;20495;-73
2021/08/22 13:41:35;;;;;;;5.07;2.90;;;;;;;;;;5137956;28;20764;-73
2021/08/22 13:44:05;;;;;;;5.90;3.83;;;;;;;;;;5136097;28;20545;-73
2021/08/22 13:46:33;;;;;;;4.93;3.30;;;;;;;;;;5136181;28;20525;-72
2021/08/22 13:51:56;;;;;;;4.67;3.70;;;;;;;;;;5133774;27;20426;-73
2021/08/22 13:54:24;;;;;;;5.27;4.00;;;;;;;;;;5135587;28;20441;-72
2021/08/22 13:56:52;;;;;;;6.60;4.40;;;;;;;;;;5136563;28;20446;-72
2021/08/22 13:59:20;;;;;;;5.83;3.67;;;;;;;;;;5137086;27;20467;-73
2021/08/22 14:01:49;;;;;;;6.00;3.90;;;;;;;;;;5135748;27;20442;-72
2021/08/22 14:04:17;;;;;;;4.13;3.50;;;;;;;;;;5135563;27;20925;-73
2021/08/22 14:06:47;;;;;;;4.00;3.60;;;;;;;;;;5136618;28;20465;-72
2021/08/22 14:09:19;;;;;;;5.17;4.67;;;;;;;;;;5136794;28;20453;-72
2021/08/22 14:11:48;;;;;;;4.53;3.80;;;;;;;;;;5136006;28;20892;-72
2021/08/22 14:14:16;;;;;;;8.00;5.37;;;;;;;;;;5117044;28;20470;-72
2021/08/22 14:16:44;;;;;;;35.03;20.27;;;;;;;;;;5116018;28;21053;-72
2021/08/22 14:19:18;;;;;;;5.10;3.20;;;;;;;;;;5116681;28;20909;-72
2021/08/22 14:21:46;;;;;;;3.93;3.40;;;;;;;;;;5116228;28;20454;-72
2021/08/22 14:24:14;;;;;;;3.90;3.33;;;;;;;;;;5116443;28;20585;-72
2021/08/22 14:26:44;;;;;;;5.50;3.63;;;;;;;;;;5115439;28;20454;-72
2021/08/22 14:29:12;;;;;;;3.80;2.60;;;;;;;;;;5133502;27;20496;-72
2021/08/22 14:31:45;;;;;;;4.57;4.00;;;;;;;;;;5140285;27;20772;-72
2021/08/22 14:34:13;;;;;;;4.63;3.63;;;;;;;;;;5139777;27;20552;-72
2021/08/22 14:36:42;;;;;;;4.93;3.43;;;;;;;;;;5139918;27;20452;-72
2021/08/22 14:39:10;;;;;;;6.13;3.90;;;;;;;;;;5139864;27;20450;-72
2021/08/22 14:41:38;;;;;;;5.10;4.03;;;;;;;;;;5139934;27;20446;-72
2021/08/22 14:44:09;;;;;;;4.57;3.87;;;;;;;;;;5139400;27;20873;-73
2021/08/22 14:46:43;;;;;;;5.00;3.97;;;;;;;;;;5136108;27;20518;-72
2021/08/22 14:49:14;;;;;;;6.20;4.13;;;;;;;;;;5120056;27;20454;-72
2021/08/22 14:51:44;;;;;;;6.53;4.50;;;;;;;;;;5120631;27;21076;-72
2021/08/22 14:54:14;;;;;;;5.00;3.63;;;;;;;;;;5118435;28;20459;-73
2021/08/22 14:56:43;;;;;;;6.47;4.63;;;;;;;;;;5131323;27;20434;-72
2021/08/22 14:59:19;;;;;;;4.03;2.87;;;;;;;;;;5139119;27;20457;-72
2021/08/22 15:01:47;;;;;;;4.83;3.33;;;;;;;;;;5139685;27;20457;-73
2021/08/22 15:04:15;;;;;;;5.87;3.80;;;;;;;;;;5139879;27;20493;-72
2021/08/22 15:06:45;;;;;;;6.37;5.33;;;;;;;;;;5140925;27;20518;-72
2021/08/22 15:09:13;;;;;;;4.60;3.03;;;;;;;;;;5139888;27;20462;-71
2021/08/22 15:11:41;;;;;;;7.10;5.20;;;;;;;;;;5138990;27;20446;-71
2021/08/22 15:14:09;;;;;;;4.80;3.30;;;;;;;;;;5139777;27;20458;-72
2021/08/22 15:16:39;;;;;;;4.00;3.60;;;;;;;;;;5139772;27;20525;-72